Архив погоды в Котельниково

Метеограмма Котельниково
Пятница, 27 Апреля
Время местн. Темп Ветер Видим Явления Облачность нижн/средн/верх Атм. давл. Влжн Точка росы ВНГО R Сост. почвы Tg s
Напр Скр Прв ур.ст ур.м изм
06:00 +9.5° Ю 2 - 10 км - ясно 757 762 +0.4 85% +7.1° более 2.5 км - Сухая (без трещин) - -
03:00 - +12.2° Ю,Ю-В 2 - - - - 757 761 +0.2 76% +8.1° - - - - -
00:00 +14.1° Ю 2 - 10 км - ясно 757 761 +0.5 71% +8.9° более 2.5 км - - - -
Четверг, 26 Апреля
Время местн. Темп Ветер Видим Явления Облачность нижн/средн/верх Атм. давл. Влжн Точка росы ВНГО R Сост. почвы Tg s
Напр Скр Прв ур.ст ур.м изм
21:00 +14.7° Ю,Ю-З 3 - 10 км - ясно 756 761 +0.9 73% +9.9° более 2.5 км - - - -
18:00 +24.4° З,Ю-З 5 - 10 км - ясно 756 760 -0.5 33% +6.9° более 2.5 км - - - -
15:00 +25° З,Ю-З 7 12 10 км - переменная облачность 756 760 -1.1 32% +7.1° 1 км - - - -
12:00 +23.1° З,Ю-З 7 12 10 км - ясно 757 761 -0.5 43% +9.8° более 2.5 км - - - -
09:00 +18.4° Ю-З 6 10 10 км - переменная облачность 758 762 +0.4 55% +9.3° - - - - -
06:00 +11.1° Ю-З 3 - 10 км - переменная облачность 757 762 +0.2 76% +7° более 2.5 км 0 Сухая (без трещин) +8° -
03:00 +11.7° Ю,Ю-З 3 - 10 км - переменная облачность 757 762 -0.3 80% +8.4° - - - - -
00:00 +11° Ю 2 - 10 км - переменная облачность 757 762 -0.1 84% +8.4° 1 км - - - -
Среда, 25 Апреля
Время местн. Темп Ветер Видим Явления Облачность нижн/средн/верх Атм. давл. Влжн Точка росы ВНГО R Сост. почвы Tg s
Напр Скр Прв ур.ст ур.м изм
21:00 +12.8° Ю 2 - 10 км - переменная облачность 757 762 +1.1 80% +9.4° 1 км - - - -
18:00 +18.9° С 2 - 10 км - облачно с прояснениями 756 761 -0.4 52% +8.9° 1 км 0 - - -
15:00 +18.4° З,С-З 5 11 10 км - преимущественно облачно 757 761 -0.5 46% +6.6° 1 км - - - -
12:00 +17.1° З,Ю-З 6 10 10 км - облачно с прояснениями 757 761 -0.7 45% +5° 1 км - - - -
09:00 +11.9° Ю,Ю-З 5 - 10 км - облачно 758 762 +0.2 74% +7.5° 1 км - - - -
06:00 +9.6° Ю 5 - 10 км небо без изменений {дождь} облачно 758 762 -0.5 86% +7.4° 1 км - Влажная (без луж) - -
03:00 +8.8° Ю,Ю-З 2 - 10 км слабый дождь с перерывами облачно 758 763 -0.5 83% +6.1° 600 м - - - -
00:00 +9.9° Ю 3 - 10 км - облачно 759 763 -0.5 63% +3.1° 1 км - - - -
Вторник, 24 Апреля
Время местн. Темп Ветер Видим Явления Облачность нижн/средн/верх Атм. давл. Влжн Точка росы ВНГО R Сост. почвы Tg s
Напр Скр Прв ур.ст ур.м изм
21:00 +8.9° Ю 2 - 10 км - ясно 759 763 -0.2 59% +1.3° более 2.5 км - - - -
18:00 +13.6° З 3 - 10 км - ясно 759 764 -0.9 27% -5.2° более 2.5 км - - - -
15:00 +13.2° З,С-З 6 - 10 км - ясно 760 764 -0.9 26% -5.9° более 2.5 км - - - -
12:00 +10.6° З 2 - 10 км - ясно 761 765 +0.1 27% -7.7° более 2.5 км - - - -
09:00 +8° З 3 - 10 км - ясно 761 766 +0.8 31% -7.9° более 2.5 км - - - -
06:00 +0.5° Ю,Ю-З 1 - 10 км - ясно 760 765 +1 80% -2.5° более 2.5 км - Замерзшая - -
03:00 +0.7° З,С-З 1 - 10 км - ясно 759 764 +0.8 74% -3.4° более 2.5 км - - - -